sensor_id;sensor_type;location;lat;lon;timestamp;P1;durP1;ratioP1;P2;durP2;ratioP2
77888;SDS011;67082;41.704;44.768;2023-03-18T13:05:31;16.33;;;8.88;;
77888;SDS011;67082;41.704;44.768;2023-03-18T13:11:05;14.98;;;9.38;;
77888;SDS011;67082;41.704;44.768;2023-03-18T13:13:41;15.18;;;9.23;;
77888;SDS011;67082;41.704;44.768;2023-03-18T13:16:14;17.05;;;9.80;;
77888;SDS011;67082;41.704;44.768;2023-03-18T13:18:49;15.23;;;9.25;;
77888;SDS011;67082;41.704;44.768;2023-03-18T13:21:21;17.20;;;9.93;;
77888;SDS011;67082;41.704;44.768;2023-03-18T13:26:42;18.25;;;10.30;;
77888;SDS011;67082;41.704;44.768;2023-03-18T13:29:35;17.88;;;10.45;;
77888;SDS011;67082;41.704;44.768;2023-03-18T13:32:48;15.95;;;10.57;;
77888;SDS011;67082;41.704;44.768;2023-03-18T13:41:27;16.88;;;10.55;;
77888;SDS011;67082;41.704;44.768;2023-03-18T13:44:20;17.98;;;11.00;;
77888;SDS011;67082;41.704;44.768;2023-03-18T13:46:53;19.23;;;10.00;;
77888;SDS011;67082;41.704;44.768;2023-03-18T13:49:28;20.63;;;10.32;;
77888;SDS011;67082;41.704;44.768;2023-03-18T13:52:02;16.63;;;10.40;;
77888;SDS011;67082;41.704;44.768;2023-03-18T13:54:37;16.88;;;11.05;;
77888;SDS011;67082;41.704;44.768;2023-03-18T14:00:11;18.90;;;11.65;;
77888;SDS011;67082;41.704;44.768;2023-03-18T14:03:05;15.68;;;9.90;;
77888;SDS011;67082;41.704;44.768;2023-03-18T14:05:46;16.95;;;10.93;;
77888;SDS011;67082;41.704;44.768;2023-03-18T14:13:58;19.55;;;11.82;;
77888;SDS011;67082;41.704;44.768;2023-03-18T14:19:15;18.70;;;11.73;;
77888;SDS011;67082;41.704;44.768;2023-03-18T14:21:52;25.23;;;12.98;;
77888;SDS011;67082;41.704;44.768;2023-03-18T14:24:34;25.05;;;13.05;;
77888;SDS011;67082;41.704;44.768;2023-03-18T14:29:42;22.10;;;13.88;;
77888;SDS011;67082;41.704;44.768;2023-03-18T14:40:34;24.13;;;11.77;;
77888;SDS011;67082;41.704;44.768;2023-03-18T14:43:10;20.25;;;11.95;;
77888;SDS011;67082;41.704;44.768;2023-03-18T14:45:43;19.60;;;12.30;;
77888;SDS011;67082;41.704;44.768;2023-03-18T14:48:20;20.70;;;12.32;;
77888;SDS011;67082;41.704;44.768;2023-03-18T14:50:57;25.27;;;11.50;;
77888;SDS011;67082;41.704;44.768;2023-03-18T14:53:32;18.35;;;12.30;;
77888;SDS011;67082;41.704;44.768;2023-03-18T14:56:04;24.90;;;13.38;;
77888;SDS011;67082;41.704;44.768;2023-03-18T14:58:46;22.45;;;12.63;;
77888;SDS011;67082;41.704;44.768;2023-03-18T15:01:15;21.80;;;13.68;;
77888;SDS011;67082;41.704;44.768;2023-03-18T15:03:45;23.48;;;14.18;;
77888;SDS011;67082;41.704;44.768;2023-03-18T15:06:23;19.20;;;12.27;;
77888;SDS011;67082;41.704;44.768;2023-03-18T15:09:00;20.42;;;12.73;;
77888;SDS011;67082;41.704;44.768;2023-03-18T15:11:45;18.75;;;12.27;;
77888;SDS011;67082;41.704;44.768;2023-03-18T15:14:32;19.63;;;12.57;;
77888;SDS011;67082;41.704;44.768;2023-03-18T15:17:03;17.27;;;11.32;;
77888;SDS011;67082;41.704;44.768;2023-03-18T15:19:38;17.52;;;9.90;;
77888;SDS011;67082;41.704;44.768;2023-03-18T15:22:06;20.52;;;6.30;;
77888;SDS011;67082;41.704;44.768;2023-03-18T15:24:35;19.52;;;5.38;;
77888;SDS011;67082;41.704;44.768;2023-03-18T15:27:05;15.45;;;5.13;;
77888;SDS011;67082;41.704;44.768;2023-03-18T15:29:54;9.65;;;4.97;;
77888;SDS011;67082;41.704;44.768;2023-03-18T15:32:32;9.30;;;3.90;;
77888;SDS011;67082;41.704;44.768;2023-03-18T15:35:19;6.30;;;3.20;;
77888;SDS011;67082;41.704;44.768;2023-03-18T15:38:35;10.13;;;3.10;;
77888;SDS011;67082;41.704;44.768;2023-03-18T15:43:30;11.15;;;3.53;;
77888;SDS011;67082;41.704;44.768;2023-03-18T15:46:45;7.80;;;3.85;;
77888;SDS011;67082;41.704;44.768;2023-03-18T15:49:01;6.45;;;3.45;;
77888;SDS011;67082;41.704;44.768;2023-03-18T15:51:41;10.45;;;4.47;;
77888;SDS011;67082;41.704;44.768;2023-03-18T15:54:15;7.13;;;3.95;;
77888;SDS011;67082;41.704;44.768;2023-03-18T15:56:46;10.45;;;5.32;;
77888;SDS011;67082;41.704;44.768;2023-03-18T16:01:47;21.65;;;12.52;;
77888;SDS011;67082;41.704;44.768;2023-03-18T16:04:16;16.50;;;8.70;;
77888;SDS011;67082;41.704;44.768;2023-03-18T16:06:44;13.80;;;7.38;;
77888;SDS011;67082;41.704;44.768;2023-03-18T16:11:44;43.90;;;25.40;;
77888;SDS011;67082;41.704;44.768;2023-03-18T16:14:18;17.40;;;11.07;;
77888;SDS011;67082;41.704;44.768;2023-03-18T16:16:48;11.40;;;5.72;;
77888;SDS011;67082;41.704;44.768;2023-03-18T16:19:21;10.10;;;6.10;;
77888;SDS011;67082;41.704;44.768;2023-03-18T16:21:55;10.07;;;4.90;;
77888;SDS011;67082;41.704;44.768;2023-03-18T16:24:25;10.38;;;6.28;;
77888;SDS011;67082;41.704;44.768;2023-03-18T16:26:53;9.25;;;5.40;;
77888;SDS011;67082;41.704;44.768;2023-03-18T16:29:28;8.20;;;5.80;;
77888;SDS011;67082;41.704;44.768;2023-03-18T16:32:01;9.40;;;5.43;;
77888;SDS011;67082;41.704;44.768;2023-03-18T16:34:30;9.10;;;5.15;;
77888;SDS011;67082;41.704;44.768;2023-03-18T16:36:58;6.43;;;3.13;;
77888;SDS011;67082;41.704;44.768;2023-03-18T16:39:26;6.63;;;3.83;;
77888;SDS011;67082;41.704;44.768;2023-03-18T16:42:02;8.87;;;5.40;;
77888;SDS011;67082;41.704;44.768;2023-03-18T16:44:33;5.13;;;3.45;;
77888;SDS011;67082;41.704;44.768;2023-03-18T16:47:02;6.70;;;3.58;;
77888;SDS011;67082;41.704;44.768;2023-03-18T16:49:31;10.38;;;4.63;;
77888;SDS011;67082;41.704;44.768;2023-03-18T16:52:00;10.38;;;6.03;;
77888;SDS011;67082;41.704;44.768;2023-03-18T16:54:30;8.15;;;4.00;;
77888;SDS011;67082;41.704;44.768;2023-03-18T16:57:01;5.90;;;3.97;;
77888;SDS011;67082;41.704;44.768;2023-03-18T16:59:35;8.68;;;4.82;;
77888;SDS011;67082;41.704;44.768;2023-03-18T17:02:04;10.63;;;5.70;;
77888;SDS011;67082;41.704;44.768;2023-03-18T17:04:54;12.32;;;6.07;;
77888;SDS011;67082;41.704;44.768;2023-03-18T17:07:22;13.27;;;6.30;;
77888;SDS011;67082;41.704;44.768;2023-03-18T17:09:50;11.18;;;5.80;;
77888;SDS011;67082;41.704;44.768;2023-03-18T17:12:18;11.80;;;6.10;;
77888;SDS011;67082;41.704;44.768;2023-03-18T17:14:52;16.10;;;8.68;;
77888;SDS011;67082;41.704;44.768;2023-03-18T17:17:30;9.27;;;6.00;;
77888;SDS011;67082;41.704;44.768;2023-03-18T17:20:01;9.30;;;5.35;;
77888;SDS011;67082;41.704;44.768;2023-03-18T17:22:30;9.50;;;5.55;;
77888;SDS011;67082;41.704;44.768;2023-03-18T17:24:59;8.48;;;4.97;;
77888;SDS011;67082;41.704;44.768;2023-03-18T17:27:29;10.88;;;4.85;;
77888;SDS011;67082;41.704;44.768;2023-03-18T17:30:14;9.95;;;5.05;;
77888;SDS011;67082;41.704;44.768;2023-03-18T17:32:47;6.00;;;3.70;;
77888;SDS011;67082;41.704;44.768;2023-03-18T17:35:17;7.50;;;3.75;;
77888;SDS011;67082;41.704;44.768;2023-03-18T17:37:48;8.38;;;4.10;;
77888;SDS011;67082;41.704;44.768;2023-03-18T17:40:17;7.40;;;4.82;;
77888;SDS011;67082;41.704;44.768;2023-03-18T17:42:48;8.02;;;3.80;;
77888;SDS011;67082;41.704;44.768;2023-03-18T17:47:52;7.10;;;4.50;;
77888;SDS011;67082;41.704;44.768;2023-03-18T17:50:25;41.15;;;21.90;;
77888;SDS011;67082;41.704;44.768;2023-03-18T17:52:52;6.72;;;3.60;;
77888;SDS011;67082;41.704;44.768;2023-03-18T17:55:21;7.53;;;3.83;;
77888;SDS011;67082;41.704;44.768;2023-03-18T17:57:50;6.05;;;3.60;;
77888;SDS011;67082;41.704;44.768;2023-03-18T18:00:20;6.57;;;3.70;;
77888;SDS011;67082;41.704;44.768;2023-03-18T18:02:53;6.57;;;4.00;;
77888;SDS011;67082;41.704;44.768;2023-03-18T18:05:22;6.63;;;4.00;;
77888;SDS011;67082;41.704;44.768;2023-03-18T18:07:50;6.47;;;3.92;;
77888;SDS011;67082;41.704;44.768;2023-03-18T18:10:19;8.77;;;4.18;;
77888;SDS011;67082;41.704;44.768;2023-03-18T18:12:47;8.35;;;4.88;;
77888;SDS011;67082;41.704;44.768;2023-03-18T18:15:20;11.85;;;5.43;;
77888;SDS011;67082;41.704;44.768;2023-03-18T18:17:53;9.23;;;5.45;;
77888;SDS011;67082;41.704;44.768;2023-03-18T18:20:22;9.85;;;5.40;;
77888;SDS011;67082;41.704;44.768;2023-03-18T18:22:51;9.77;;;5.95;;
77888;SDS011;67082;41.704;44.768;2023-03-18T18:25:24;10.98;;;5.97;;
77888;SDS011;67082;41.704;44.768;2023-03-18T18:27:56;10.55;;;5.90;;
77888;SDS011;67082;41.704;44.768;2023-03-18T18:30:26;9.65;;;6.43;;
77888;SDS011;67082;41.704;44.768;2023-03-18T18:32:54;13.95;;;7.53;;
77888;SDS011;67082;41.704;44.768;2023-03-18T18:35:28;11.30;;;6.93;;
77888;SDS011;67082;41.704;44.768;2023-03-18T18:38:00;10.25;;;6.22;;
77888;SDS011;67082;41.704;44.768;2023-03-18T18:40:31;11.95;;;7.15;;
77888;SDS011;67082;41.704;44.768;2023-03-18T18:42:59;12.27;;;6.80;;
77888;SDS011;67082;41.704;44.768;2023-03-18T18:45:31;12.43;;;7.45;;
77888;SDS011;67082;41.704;44.768;2023-03-18T18:48:16;16.17;;;6.97;;
77888;SDS011;67082;41.704;44.768;2023-03-18T18:50:49;10.07;;;6.53;;
77888;SDS011;67082;41.704;44.768;2023-03-18T18:53:23;9.95;;;5.90;;
77888;SDS011;67082;41.704;44.768;2023-03-18T18:56:00;10.10;;;6.72;;
77888;SDS011;67082;41.704;44.768;2023-03-18T18:58:43;9.45;;;5.50;;
77888;SDS011;67082;41.704;44.768;2023-03-18T19:01:17;9.60;;;5.20;;
77888;SDS011;67082;41.704;44.768;2023-03-18T19:03:46;9.85;;;5.25;;
77888;SDS011;67082;41.704;44.768;2023-03-18T19:06:27;9.32;;;5.70;;
77888;SDS011;67082;41.704;44.768;2023-03-18T19:08:58;10.07;;;6.40;;
77888;SDS011;67082;41.704;44.768;2023-03-18T19:11:29;11.55;;;6.40;;
77888;SDS011;67082;41.704;44.768;2023-03-18T19:14:13;14.45;;;6.43;;
77888;SDS011;67082;41.704;44.768;2023-03-18T19:16:44;9.57;;;6.20;;
77888;SDS011;67082;41.704;44.768;2023-03-18T19:19:14;11.30;;;6.22;;
77888;SDS011;67082;41.704;44.768;2023-03-18T19:21:45;11.45;;;6.13;;
77888;SDS011;67082;41.704;44.768;2023-03-18T19:27:02;10.82;;;6.50;;
77888;SDS011;67082;41.704;44.768;2023-03-18T19:29:31;11.70;;;6.75;;
77888;SDS011;67082;41.704;44.768;2023-03-18T19:32:01;10.32;;;6.53;;
77888;SDS011;67082;41.704;44.768;2023-03-18T19:34:29;9.00;;;5.18;;
77888;SDS011;67082;41.704;44.768;2023-03-18T19:36:59;8.57;;;5.35;;
77888;SDS011;67082;41.704;44.768;2023-03-18T19:39:29;8.52;;;5.32;;
77888;SDS011;67082;41.704;44.768;2023-03-18T19:41:58;9.82;;;5.18;;
77888;SDS011;67082;41.704;44.768;2023-03-18T19:44:26;9.45;;;5.43;;
77888;SDS011;67082;41.704;44.768;2023-03-18T19:46:55;10.40;;;5.25;;
77888;SDS011;67082;41.704;44.768;2023-03-18T19:49:29;6.07;;;4.18;;
77888;SDS011;67082;41.704;44.768;2023-03-18T19:52:14;8.30;;;4.93;;
77888;SDS011;67082;41.704;44.768;2023-03-18T19:54:44;8.02;;;4.88;;
77888;SDS011;67082;41.704;44.768;2023-03-18T19:57:15;8.15;;;5.07;;
77888;SDS011;67082;41.704;44.768;2023-03-18T19:59:46;9.75;;;4.15;;
77888;SDS011;67082;41.704;44.768;2023-03-18T20:04:56;8.18;;;4.13;;
77888;SDS011;67082;41.704;44.768;2023-03-18T20:07:27;6.90;;;3.80;;
77888;SDS011;67082;41.704;44.768;2023-03-18T20:09:59;8.85;;;5.13;;
77888;SDS011;67082;41.704;44.768;2023-03-18T20:12:36;8.88;;;4.78;;
77888;SDS011;67082;41.704;44.768;2023-03-18T20:17:50;6.40;;;4.53;;
77888;SDS011;67082;41.704;44.768;2023-03-18T20:20:19;6.82;;;4.30;;
77888;SDS011;67082;41.704;44.768;2023-03-18T20:23:14;8.35;;;4.82;;
77888;SDS011;67082;41.704;44.768;2023-03-18T20:28:22;8.50;;;4.57;;
77888;SDS011;67082;41.704;44.768;2023-03-18T20:30:51;9.20;;;5.68;;
77888;SDS011;67082;41.704;44.768;2023-03-18T20:33:21;7.25;;;4.65;;
77888;SDS011;67082;41.704;44.768;2023-03-18T20:35:50;10.88;;;6.20;;
77888;SDS011;67082;41.704;44.768;2023-03-18T20:38:31;9.43;;;5.60;;
77888;SDS011;67082;41.704;44.768;2023-03-18T20:41:02;10.68;;;5.53;;
77888;SDS011;67082;41.704;44.768;2023-03-18T20:43:31;12.30;;;5.65;;
77888;SDS011;67082;41.704;44.768;2023-03-18T20:45:59;9.65;;;5.68;;
77888;SDS011;67082;41.704;44.768;2023-03-18T20:48:29;11.75;;;5.57;;
77888;SDS011;67082;41.704;44.768;2023-03-18T20:50:59;15.38;;;5.72;;
77888;SDS011;67082;41.704;44.768;2023-03-18T20:53:29;9.15;;;5.65;;
77888;SDS011;67082;41.704;44.768;2023-03-18T20:55:57;12.82;;;6.93;;
77888;SDS011;67082;41.704;44.768;2023-03-18T20:58:26;14.43;;;8.43;;
77888;SDS011;67082;41.704;44.768;2023-03-18T21:00:54;17.75;;;7.97;;
77888;SDS011;67082;41.704;44.768;2023-03-18T21:05:56;12.02;;;7.18;;
77888;SDS011;67082;41.704;44.768;2023-03-18T21:08:27;12.15;;;6.70;;
77888;SDS011;67082;41.704;44.768;2023-03-18T21:10:56;8.90;;;6.30;;
77888;SDS011;67082;41.704;44.768;2023-03-18T21:13:29;10.88;;;6.50;;
77888;SDS011;67082;41.704;44.768;2023-03-18T21:16:00;10.88;;;6.60;;
77888;SDS011;67082;41.704;44.768;2023-03-18T21:18:33;12.40;;;6.82;;
77888;SDS011;67082;41.704;44.768;2023-03-18T21:21:01;11.88;;;7.05;;
77888;SDS011;67082;41.704;44.768;2023-03-18T21:23:30;13.32;;;6.97;;
77888;SDS011;67082;41.704;44.768;2023-03-18T21:26:03;13.45;;;6.70;;
77888;SDS011;67082;41.704;44.768;2023-03-18T21:28:32;11.07;;;6.90;;
77888;SDS011;67082;41.704;44.768;2023-03-18T21:31:00;12.52;;;7.00;;
77888;SDS011;67082;41.704;44.768;2023-03-18T21:33:30;12.55;;;7.65;;
77888;SDS011;67082;41.704;44.768;2023-03-18T21:36:01;12.88;;;7.65;;
77888;SDS011;67082;41.704;44.768;2023-03-18T21:38:30;12.55;;;7.70;;
77888;SDS011;67082;41.704;44.768;2023-03-18T21:41:01;13.95;;;7.95;;
77888;SDS011;67082;41.704;44.768;2023-03-18T21:46:05;10.00;;;6.20;;
77888;SDS011;67082;41.704;44.768;2023-03-18T21:48:39;12.70;;;7.03;;
77888;SDS011;67082;41.704;44.768;2023-03-18T21:51:13;11.43;;;6.72;;
77888;SDS011;67082;41.704;44.768;2023-03-18T21:54:05;10.05;;;6.80;;
77888;SDS011;67082;41.704;44.768;2023-03-18T21:56:43;12.27;;;7.60;;
77888;SDS011;67082;41.704;44.768;2023-03-18T21:59:11;13.20;;;6.38;;
77888;SDS011;67082;41.704;44.768;2023-03-18T22:01:39;11.55;;;6.57;;
77888;SDS011;67082;41.704;44.768;2023-03-18T22:04:07;12.82;;;6.88;;
77888;SDS011;67082;41.704;44.768;2023-03-18T22:06:35;9.90;;;6.22;;
77888;SDS011;67082;41.704;44.768;2023-03-18T22:09:03;10.43;;;6.15;;
77888;SDS011;67082;41.704;44.768;2023-03-18T22:11:31;10.38;;;6.20;;
77888;SDS011;67082;41.704;44.768;2023-03-18T22:14:00;12.63;;;7.13;;
77888;SDS011;67082;41.704;44.768;2023-03-18T22:16:28;20.58;;;8.52;;
77888;SDS011;67082;41.704;44.768;2023-03-18T22:18:58;11.32;;;6.63;;
77888;SDS011;67082;41.704;44.768;2023-03-18T22:21:25;11.85;;;7.50;;
77888;SDS011;67082;41.704;44.768;2023-03-18T22:23:55;12.98;;;7.68;;
77888;SDS011;67082;41.704;44.768;2023-03-18T22:26:24;13.88;;;7.32;;
77888;SDS011;67082;41.704;44.768;2023-03-18T22:28:52;15.27;;;7.90;;
77888;SDS011;67082;41.704;44.768;2023-03-18T22:31:22;13.68;;;7.65;;
77888;SDS011;67082;41.704;44.768;2023-03-18T22:33:52;12.68;;;7.65;;
77888;SDS011;67082;41.704;44.768;2023-03-18T22:36:21;13.20;;;7.35;;
77888;SDS011;67082;41.704;44.768;2023-03-18T22:38:50;13.63;;;7.07;;
77888;SDS011;67082;41.704;44.768;2023-03-18T22:43:48;15.25;;;6.95;;
77888;SDS011;67082;41.704;44.768;2023-03-18T22:46:16;11.27;;;6.43;;
77888;SDS011;67082;41.704;44.768;2023-03-18T22:48:44;12.48;;;6.70;;
77888;SDS011;67082;41.704;44.768;2023-03-18T22:51:23;12.65;;;7.10;;
77888;SDS011;67082;41.704;44.768;2023-03-18T22:53:56;10.75;;;6.53;;
77888;SDS011;67082;41.704;44.768;2023-03-18T22:56:24;9.77;;;6.53;;
77888;SDS011;67082;41.704;44.768;2023-03-18T22:58:53;11.00;;;6.63;;
77888;SDS011;67082;41.704;44.768;2023-03-18T23:01:21;11.20;;;7.13;;
77888;SDS011;67082;41.704;44.768;2023-03-18T23:03:56;15.27;;;8.50;;
77888;SDS011;67082;41.704;44.768;2023-03-18T23:06:24;15.57;;;7.95;;
77888;SDS011;67082;41.704;44.768;2023-03-18T23:08:53;15.07;;;8.32;;
77888;SDS011;67082;41.704;44.768;2023-03-18T23:11:22;16.38;;;7.43;;
77888;SDS011;67082;41.704;44.768;2023-03-18T23:13:50;11.90;;;7.70;;
77888;SDS011;67082;41.704;44.768;2023-03-18T23:16:19;15.70;;;7.57;;
77888;SDS011;67082;41.704;44.768;2023-03-18T23:18:50;13.85;;;7.57;;
77888;SDS011;67082;41.704;44.768;2023-03-18T23:21:20;15.32;;;8.05;;
77888;SDS011;67082;41.704;44.768;2023-03-18T23:23:50;12.27;;;7.57;;
77888;SDS011;67082;41.704;44.768;2023-03-18T23:26:19;12.18;;;7.35;;
77888;SDS011;67082;41.704;44.768;2023-03-18T23:28:48;14.95;;;7.25;;
77888;SDS011;67082;41.704;44.768;2023-03-18T23:31:16;12.25;;;7.43;;
77888;SDS011;67082;41.704;44.768;2023-03-18T23:33:44;12.90;;;7.30;;
77888;SDS011;67082;41.704;44.768;2023-03-18T23:36:13;13.38;;;7.22;;
77888;SDS011;67082;41.704;44.768;2023-03-18T23:38:41;13.70;;;8.00;;
77888;SDS011;67082;41.704;44.768;2023-03-18T23:41:09;12.52;;;7.55;;
77888;SDS011;67082;41.704;44.768;2023-03-18T23:43:38;12.18;;;7.57;;
77888;SDS011;67082;41.704;44.768;2023-03-18T23:46:06;12.32;;;7.63;;
77888;SDS011;67082;41.704;44.768;2023-03-18T23:48:35;14.27;;;7.57;;
77888;SDS011;67082;41.704;44.768;2023-03-18T23:51:03;10.88;;;7.15;;
77888;SDS011;67082;41.704;44.768;2023-03-18T23:53:31;10.77;;;7.22;;
77888;SDS011;67082;41.704;44.768;2023-03-18T23:55:59;14.02;;;8.10;;
77888;SDS011;67082;41.704;44.768;2023-03-18T23:58:27;13.05;;;7.88;;
